Luthersburg, PA (15848)

12:54 PM EDT on August 30, 2015 (GMT -0400)
Eastern Avenue | | Change Station
CLOSE
Current Station
Personal Weather Station
Location: DuBois, PA
Elevation: 1457 ft
Nearby Weather Stations

Elev 1457 ft 41.12 °N, 78.74 °W | Updated 22 seconds ago

Overcast
Overcast
78.6 °F
Feels Like 81 °F
N
0.4
Wind Variable Wind from North
Gusts 2.5 mph

Today
High -- | Low -- °F
--% Chance of Precip.
Yesterday
High -- | Low -- °F
Precip. -- in
6:39 AM 7:51 PM
Full, 99% visible
Pressure 30.15 in
Visibility 10.0 miles
Clouds Scattered Clouds 2300 ft
Heat Index 81 °F
Dew Point 66 °F
Humidity 65%
Rainfall 0.00 in
Snow Depth Not available.
UV 3.0 out of 12
Pollen 9.70 out of 12
Air Quality Not available.
Flu Activity Not available.
SPECI KDUJ 301628Z AUTO 26009KT 10SM SCT023 25/17 A3015 RMK AO2 T02500172
Pressure 30.15 in
Visibility 10.0 miles
Clouds Scattered Clouds 2300 ft
Heat Index 81 °F
Dew Point 66 °F
Humidity 65%
Rainfall 0.00 in
Snow Depth Not available.
UV 3.0 out of 12
Pollen 9.70 out of 12
Air Quality Not available.
Flu Activity Not available.
SPECI KDUJ 301628Z AUTO 26009KT 10SM SCT023 25/17 A3015 RMK AO2 T02500172

10-Day Weather Forecast

×

Almanac

Astronomy

Aug. 30, 2015 Rise Set
Actual Time
Civil Twilight
Nautical Twilight
Astronomical Twilight
Moon
Length of Visible Light
Length of Day
Tomorrow will be .
, % of the Moon is Illuminated

Today's Extremes

State Highs State Lows

Community

WunderPhotos

Upload Photos

1,851,008 photos uploaded!

WunderBlogs® & News

Nearby

Air Quality

  Air Quality AQ Index Pollutant
Not available.

Snow Depth

Station Depth Elevation

Earthquake Activity

City Distance Mag. Time & Date
Minimum magnitude displayed is 2.5.

Coastal Water Temperatures

Place Temperature

Stations

Nearby Weather Stations

Station Location Temp. Windchill Dew Point Humidity Wind Precip. Elev Updated Type